sensor_id;sensor_type;location;lat;lon;timestamp;pressure;altitude;pressure_sealevel;temperature;humidity
28701;BME280;15877;52.344;16.790;2023-04-03T00:01:24;101758.05;;;5.30;54.92
28701;BME280;15877;52.344;16.790;2023-04-03T00:03:57;101755.15;;;5.27;55.03
28701;BME280;15877;52.344;16.790;2023-04-03T00:06:31;101756.63;;;5.28;55.22
28701;BME280;15877;52.344;16.790;2023-04-03T00:09:04;101761.64;;;5.29;55.28
28701;BME280;15877;52.344;16.790;2023-04-03T00:11:39;101756.65;;;5.38;54.93
28701;BME280;15877;52.344;16.790;2023-04-03T00:14:12;101743.05;;;5.22;55.20
28701;BME280;15877;52.344;16.790;2023-04-03T00:16:45;101755.33;;;5.35;55.04
28701;BME280;15877;52.344;16.790;2023-04-03T00:19:18;101757.02;;;5.34;55.14
28701;BME280;15877;52.344;16.790;2023-04-03T00:21:50;101765.89;;;5.28;55.41
28701;BME280;15877;52.344;16.790;2023-04-03T00:24:24;101766.30;;;5.26;55.36
28701;BME280;15877;52.344;16.790;2023-04-03T00:26:57;101760.42;;;5.21;55.74
28701;BME280;15877;52.344;16.790;2023-04-03T00:29:30;101761.23;;;5.19;55.94
28701;BME280;15877;52.344;16.790;2023-04-03T00:32:03;101763.17;;;5.17;55.91
28701;BME280;15877;52.344;16.790;2023-04-03T00:34:36;101767.82;;;5.21;55.88
28701;BME280;15877;52.344;16.790;2023-04-03T00:37:09;101766.01;;;5.23;55.82
28701;BME280;15877;52.344;16.790;2023-04-03T00:39:42;101761.30;;;5.13;56.05
28701;BME280;15877;52.344;16.790;2023-04-03T00:42:14;101759.63;;;5.15;56.04
28701;BME280;15877;52.344;16.790;2023-04-03T00:47:55;101764.46;;;5.03;56.57
28701;BME280;15877;52.344;16.790;2023-04-03T00:50:31;101763.09;;;5.07;56.46
28701;BME280;15877;52.344;16.790;2023-04-03T00:53:06;101759.86;;;5.06;56.46
28701;BME280;15877;52.344;16.790;2023-04-03T00:55:42;101763.34;;;4.95;56.61
28701;BME280;15877;52.344;16.790;2023-04-03T00:58:16;101762.27;;;4.85;57.02
28701;BME280;15877;52.344;16.790;2023-04-03T01:00:55;101767.79;;;4.91;56.93
28701;BME280;15877;52.344;16.790;2023-04-03T01:03:30;101767.64;;;4.96;56.90
28701;BME280;15877;52.344;16.790;2023-04-03T01:06:05;101764.86;;;4.98;56.66
28701;BME280;15877;52.344;16.790;2023-04-03T01:08:40;101769.36;;;5.03;56.60
28701;BME280;15877;52.344;16.790;2023-04-03T01:11:13;101768.90;;;4.91;56.84
28701;BME280;15877;52.344;16.790;2023-04-03T01:13:47;101771.17;;;4.85;56.96
28701;BME280;15877;52.344;16.790;2023-04-03T01:16:20;101772.70;;;4.78;57.20
28701;BME280;15877;52.344;16.790;2023-04-03T01:18:52;101767.88;;;4.89;56.90
28701;BME280;15877;52.344;16.790;2023-04-03T01:22:05;101774.08;;;4.87;56.92
28701;BME280;15877;52.344;16.790;2023-04-03T01:24:46;101774.63;;;4.82;57.15
28701;BME280;15877;52.344;16.790;2023-04-03T01:27:19;101765.61;;;4.81;57.05
28701;BME280;15877;52.344;16.790;2023-04-03T01:29:52;101781.93;;;4.88;56.93
28701;BME280;15877;52.344;16.790;2023-04-03T01:32:25;101780.88;;;4.84;56.96
28701;BME280;15877;52.344;16.790;2023-04-03T01:34:58;101778.84;;;4.89;57.01
28701;BME280;15877;52.344;16.790;2023-04-03T01:37:31;101778.04;;;4.84;57.13
28701;BME280;15877;52.344;16.790;2023-04-03T01:40:04;101776.42;;;4.79;57.32
28701;BME280;15877;52.344;16.790;2023-04-03T01:42:38;101757.61;;;4.64;57.31
28701;BME280;15877;52.344;16.790;2023-04-03T01:45:11;101787.59;;;4.80;57.34
28701;BME280;15877;52.344;16.790;2023-04-03T01:47:44;101782.63;;;4.77;57.44
28701;BME280;15877;52.344;16.790;2023-04-03T01:50:17;101783.77;;;4.83;57.41
28701;BME280;15877;52.344;16.790;2023-04-03T01:52:51;101782.15;;;4.75;57.69
28701;BME280;15877;52.344;16.790;2023-04-03T01:55:23;101780.02;;;4.69;57.86
28701;BME280;15877;52.344;16.790;2023-04-03T01:57:56;101785.63;;;4.69;57.88
28701;BME280;15877;52.344;16.790;2023-04-03T02:00:28;101789.98;;;4.72;57.84
28701;BME280;15877;52.344;16.790;2023-04-03T02:03:02;101788.02;;;4.76;57.69
28701;BME280;15877;52.344;16.790;2023-04-03T02:05:35;101787.17;;;4.63;57.90
28701;BME280;15877;52.344;16.790;2023-04-03T02:08:08;101789.46;;;4.56;58.28
28701;BME280;15877;52.344;16.790;2023-04-03T02:10:41;101796.92;;;4.58;58.29
28701;BME280;15877;52.344;16.790;2023-04-03T02:13:13;101801.95;;;4.52;58.61
28701;BME280;15877;52.344;16.790;2023-04-03T02:15:46;101798.17;;;4.47;58.65
28701;BME280;15877;52.344;16.790;2023-04-03T02:18:20;101802.63;;;4.43;58.78
28701;BME280;15877;52.344;16.790;2023-04-03T02:20:52;101799.42;;;4.55;58.63
28701;BME280;15877;52.344;16.790;2023-04-03T02:23:26;101801.23;;;4.56;58.49
28701;BME280;15877;52.344;16.790;2023-04-03T02:26:09;101799.11;;;4.58;58.29
28701;BME280;15877;52.344;16.790;2023-04-03T02:28:42;101804.08;;;4.57;58.57
28701;BME280;15877;52.344;16.790;2023-04-03T02:31:16;101803.58;;;4.57;58.53
28701;BME280;15877;52.344;16.790;2023-04-03T02:33:50;101809.98;;;4.57;58.68
28701;BME280;15877;52.344;16.790;2023-04-03T02:36:22;101809.61;;;4.60;58.54
28701;BME280;15877;52.344;16.790;2023-04-03T02:38:58;101809.89;;;4.61;58.35
28701;BME280;15877;52.344;16.790;2023-04-03T02:41:31;101806.79;;;4.61;58.37
28701;BME280;15877;52.344;16.790;2023-04-03T02:44:11;101818.16;;;4.59;58.46
28701;BME280;15877;52.344;16.790;2023-04-03T02:46:44;101817.17;;;4.64;58.35
28701;BME280;15877;52.344;16.790;2023-04-03T02:49:18;101819.80;;;4.55;58.70
28701;BME280;15877;52.344;16.790;2023-04-03T02:51:51;101823.97;;;4.51;58.91
28701;BME280;15877;52.344;16.790;2023-04-03T02:54:24;101823.64;;;4.56;58.79
28701;BME280;15877;52.344;16.790;2023-04-03T02:57:00;101825.99;;;4.52;58.89
28701;BME280;15877;52.344;16.790;2023-04-03T02:59:33;101832.33;;;4.58;58.85
28701;BME280;15877;52.344;16.790;2023-04-03T03:02:06;101832.40;;;4.43;59.32
28701;BME280;15877;52.344;16.790;2023-04-03T03:04:39;101834.71;;;4.50;59.27
28701;BME280;15877;52.344;16.790;2023-04-03T03:07:12;101830.87;;;4.49;59.14
28701;BME280;15877;52.344;16.790;2023-04-03T03:09:44;101832.99;;;4.51;59.27
28701;BME280;15877;52.344;16.790;2023-04-03T03:12:18;101832.71;;;4.46;59.32
28701;BME280;15877;52.344;16.790;2023-04-03T03:14:53;101839.28;;;4.43;59.58
28701;BME280;15877;52.344;16.790;2023-04-03T03:17:26;101838.73;;;4.43;59.67
28701;BME280;15877;52.344;16.790;2023-04-03T03:19:59;101840.89;;;4.47;59.48
28701;BME280;15877;52.344;16.790;2023-04-03T03:22:33;101845.92;;;4.46;59.59
28701;BME280;15877;52.344;16.790;2023-04-03T03:25:08;101844.27;;;4.34;59.93
28701;BME280;15877;52.344;16.790;2023-04-03T03:27:41;101849.26;;;4.36;59.99
28701;BME280;15877;52.344;16.790;2023-04-03T03:30:15;101836.70;;;4.30;59.93
28701;BME280;15877;52.344;16.790;2023-04-03T03:32:48;101842.51;;;4.28;60.01
28701;BME280;15877;52.344;16.790;2023-04-03T03:35:21;101850.22;;;4.40;60.04
28701;BME280;15877;52.344;16.790;2023-04-03T03:37:53;101852.49;;;4.43;59.78
28701;BME280;15877;52.344;16.790;2023-04-03T03:40:26;101850.92;;;4.41;59.80
28701;BME280;15877;52.344;16.790;2023-04-03T03:42:59;101851.80;;;4.40;59.88
28701;BME280;15877;52.344;16.790;2023-04-03T03:45:32;101838.13;;;4.32;59.92
28701;BME280;15877;52.344;16.790;2023-04-03T03:48:06;101852.98;;;4.32;60.10
28701;BME280;15877;52.344;16.790;2023-04-03T03:50:39;101852.77;;;4.37;60.06
28701;BME280;15877;52.344;16.790;2023-04-03T03:53:11;101853.69;;;4.40;59.98
28701;BME280;15877;52.344;16.790;2023-04-03T03:55:45;101854.85;;;4.39;60.02
28701;BME280;15877;52.344;16.790;2023-04-03T03:58:17;101855.39;;;4.34;60.16
28701;BME280;15877;52.344;16.790;2023-04-03T04:00:50;101849.98;;;4.28;60.31
28701;BME280;15877;52.344;16.790;2023-04-03T04:03:23;101849.30;;;4.32;60.21
28701;BME280;15877;52.344;16.790;2023-04-03T04:05:56;101854.71;;;4.34;60.32
28701;BME280;15877;52.344;16.790;2023-04-03T04:08:30;101858.25;;;4.33;60.23
28701;BME280;15877;52.344;16.790;2023-04-03T04:11:03;101856.31;;;4.23;60.71
28701;BME280;15877;52.344;16.790;2023-04-03T04:13:36;101851.56;;;4.23;60.53
28701;BME280;15877;52.344;16.790;2023-04-03T04:16:09;101855.83;;;4.20;60.69
28701;BME280;15877;52.344;16.790;2023-04-03T04:18:42;101860.27;;;4.20;60.62
28701;BME280;15877;52.344;16.790;2023-04-03T04:21:16;101864.71;;;4.22;60.69
28701;BME280;15877;52.344;16.790;2023-04-03T04:23:49;101865.52;;;4.13;60.97
28701;BME280;15877;52.344;16.790;2023-04-03T04:26:23;101871.34;;;4.14;60.94
28701;BME280;15877;52.344;16.790;2023-04-03T04:28:56;101870.38;;;4.17;61.00
28701;BME280;15877;52.344;16.790;2023-04-03T04:31:29;101869.36;;;4.19;60.71
28701;BME280;15877;52.344;16.790;2023-04-03T04:34:02;101872.80;;;4.17;60.92
28701;BME280;15877;52.344;16.790;2023-04-03T04:36:35;101874.52;;;4.20;60.89
28701;BME280;15877;52.344;16.790;2023-04-03T04:39:08;101875.04;;;4.26;60.46
28701;BME280;15877;52.344;16.790;2023-04-03T04:41:41;101875.67;;;4.29;60.21
28701;BME280;15877;52.344;16.790;2023-04-03T04:44:14;101881.12;;;4.22;60.48
28701;BME280;15877;52.344;16.790;2023-04-03T04:46:47;101884.77;;;4.27;60.16
28701;BME280;15877;52.344;16.790;2023-04-03T04:49:20;101887.75;;;4.25;60.17
28701;BME280;15877;52.344;16.790;2023-04-03T04:51:53;101886.95;;;4.22;60.38
28701;BME280;15877;52.344;16.790;2023-04-03T04:54:29;101871.32;;;4.08;60.44
28701;BME280;15877;52.344;16.790;2023-04-03T04:57:03;101888.41;;;4.20;60.32
28701;BME280;15877;52.344;16.790;2023-04-03T04:59:36;101891.95;;;4.22;60.23
28701;BME280;15877;52.344;16.790;2023-04-03T05:02:10;101895.63;;;4.23;60.38
28701;BME280;15877;52.344;16.790;2023-04-03T05:04:44;101901.88;;;4.26;60.41
28701;BME280;15877;52.344;16.790;2023-04-03T05:07:21;101895.64;;;4.24;60.26
28701;BME280;15877;52.344;16.790;2023-04-03T05:09:55;101885.64;;;4.07;60.45
28701;BME280;15877;52.344;16.790;2023-04-03T05:12:27;101899.71;;;4.14;60.28
28701;BME280;15877;52.344;16.790;2023-04-03T05:15:03;101903.89;;;4.15;60.45
28701;BME280;15877;52.344;16.790;2023-04-03T05:17:36;101904.36;;;4.12;60.60
28701;BME280;15877;52.344;16.790;2023-04-03T05:20:11;101900.85;;;4.08;60.64
28701;BME280;15877;52.344;16.790;2023-04-03T05:22:44;101904.98;;;4.16;60.53
28701;BME280;15877;52.344;16.790;2023-04-03T05:25:17;101907.30;;;4.14;60.49
28701;BME280;15877;52.344;16.790;2023-04-03T05:27:51;101910.23;;;4.14;60.43
28701;BME280;15877;52.344;16.790;2023-04-03T05:30:25;101895.72;;;4.04;60.58
28701;BME280;15877;52.344;16.790;2023-04-03T05:32:59;101910.77;;;4.05;60.71
28701;BME280;15877;52.344;16.790;2023-04-03T05:35:41;101913.74;;;4.21;60.40
28701;BME280;15877;52.344;16.790;2023-04-03T05:38:19;101914.48;;;4.19;60.38
28701;BME280;15877;52.344;16.790;2023-04-03T05:40:53;101902.41;;;4.08;60.48
28701;BME280;15877;52.344;16.790;2023-04-03T05:43:26;101913.80;;;4.23;60.43
28701;BME280;15877;52.344;16.790;2023-04-03T05:45:59;101903.65;;;4.18;60.04
28701;BME280;15877;52.344;16.790;2023-04-03T05:48:32;101902.44;;;4.04;60.41
28701;BME280;15877;52.344;16.790;2023-04-03T05:51:07;101919.36;;;4.13;60.45
28701;BME280;15877;52.344;16.790;2023-04-03T05:53:38;101917.43;;;4.21;60.23
28701;BME280;15877;52.344;16.790;2023-04-03T05:56:11;101919.71;;;4.27;60.28
28701;BME280;15877;52.344;16.790;2023-04-03T05:58:44;101915.27;;;4.31;60.21
28701;BME280;15877;52.344;16.790;2023-04-03T06:01:17;101893.00;;;4.15;60.01
28701;BME280;15877;52.344;16.790;2023-04-03T06:03:50;101924.10;;;4.28;60.13
28701;BME280;15877;52.344;16.790;2023-04-03T06:06:23;101923.36;;;4.22;60.22
28701;BME280;15877;52.344;16.790;2023-04-03T06:08:56;101909.36;;;4.19;60.24
28701;BME280;15877;52.344;16.790;2023-04-03T06:11:30;101925.81;;;4.28;60.40
28701;BME280;15877;52.344;16.790;2023-04-03T06:14:02;101928.39;;;4.26;60.45
28701;BME280;15877;52.344;16.790;2023-04-03T06:16:35;101928.83;;;4.36;60.21
28701;BME280;15877;52.344;16.790;2023-04-03T06:19:11;101929.89;;;4.34;60.35
28701;BME280;15877;52.344;16.790;2023-04-03T06:21:48;101931.95;;;4.43;60.44
28701;BME280;15877;52.344;16.790;2023-04-03T06:24:21;101931.13;;;4.39;60.42
28701;BME280;15877;52.344;16.790;2023-04-03T06:26:56;101935.81;;;4.58;59.98
28701;BME280;15877;52.344;16.790;2023-04-03T06:29:29;101929.66;;;4.62;59.75
28701;BME280;15877;52.344;16.790;2023-04-03T06:32:02;101934.91;;;4.60;59.70
28701;BME280;15877;52.344;16.790;2023-04-03T06:34:34;101941.32;;;4.58;59.96
28701;BME280;15877;52.344;16.790;2023-04-03T06:37:08;101936.20;;;4.76;59.64
28701;BME280;15877;52.344;16.790;2023-04-03T06:39:42;101941.73;;;4.80;59.83
28701;BME280;15877;52.344;16.790;2023-04-03T06:42:16;101942.48;;;4.81;59.52
28701;BME280;15877;52.344;16.790;2023-04-03T06:44:56;101943.14;;;4.83;59.46
28701;BME280;15877;52.344;16.790;2023-04-03T06:47:28;101943.88;;;4.86;59.36
28701;BME280;15877;52.344;16.790;2023-04-03T06:50:01;101944.94;;;4.90;59.14
28701;BME280;15877;52.344;16.790;2023-04-03T06:52:33;101949.69;;;4.94;58.85
28701;BME280;15877;52.344;16.790;2023-04-03T06:55:07;101945.70;;;5.04;57.76
28701;BME280;15877;52.344;16.790;2023-04-03T06:57:40;101952.16;;;5.13;57.64
28701;BME280;15877;52.344;16.790;2023-04-03T07:00:15;101951.54;;;5.15;57.81
28701;BME280;15877;52.344;16.790;2023-04-03T07:02:48;101954.96;;;5.20;57.38
28701;BME280;15877;52.344;16.790;2023-04-03T07:05:21;101954.30;;;5.19;57.48
28701;BME280;15877;52.344;16.790;2023-04-03T07:07:54;101959.71;;;5.33;56.40
28701;BME280;15877;52.344;16.790;2023-04-03T07:10:27;101967.75;;;5.50;55.93
28701;BME280;15877;52.344;16.790;2023-04-03T07:13:00;101967.05;;;5.52;56.02
28701;BME280;15877;52.344;16.790;2023-04-03T07:15:33;101964.52;;;5.52;55.91
28701;BME280;15877;52.344;16.790;2023-04-03T07:18:07;101970.63;;;5.43;56.09
28701;BME280;15877;52.344;16.790;2023-04-03T07:20:41;101972.21;;;5.49;55.17
28701;BME280;15877;52.344;16.790;2023-04-03T07:23:13;101972.80;;;5.47;55.34
28701;BME280;15877;52.344;16.790;2023-04-03T07:25:47;101971.98;;;5.54;56.04
28701;BME280;15877;52.344;16.790;2023-04-03T07:28:21;101979.33;;;5.64;55.22
28701;BME280;15877;52.344;16.790;2023-04-03T07:30:59;101975.52;;;5.76;54.03
28701;BME280;15877;52.344;16.790;2023-04-03T07:33:33;101966.63;;;5.71;53.36
28701;BME280;15877;52.344;16.790;2023-04-03T07:36:07;101987.19;;;5.74;53.92
28701;BME280;15877;52.344;16.790;2023-04-03T07:38:39;101988.48;;;5.68;54.12
28701;BME280;15877;52.344;16.790;2023-04-03T07:41:16;101990.89;;;5.85;53.34
28701;BME280;15877;52.344;16.790;2023-04-03T07:43:48;101991.25;;;5.77;52.73
28701;BME280;15877;52.344;16.790;2023-04-03T07:46:23;101988.93;;;5.77;52.21
28701;BME280;15877;52.344;16.790;2023-04-03T07:48:57;101990.27;;;5.88;52.01
28701;BME280;15877;52.344;16.790;2023-04-03T07:51:30;101993.65;;;5.85;51.57
28701;BME280;15877;52.344;16.790;2023-04-03T07:54:02;101994.64;;;5.99;50.80
28701;BME280;15877;52.344;16.790;2023-04-03T07:56:35;101992.80;;;6.00;50.38
28701;BME280;15877;52.344;16.790;2023-04-03T07:59:09;101993.30;;;6.05;50.32
28701;BME280;15877;52.344;16.790;2023-04-03T08:01:43;101996.46;;;6.11;50.58
28701;BME280;15877;52.344;16.790;2023-04-03T08:04:15;101997.90;;;6.15;49.43
28701;BME280;15877;52.344;16.790;2023-04-03T08:06:48;101984.90;;;6.01;49.09
28701;BME280;15877;52.344;16.790;2023-04-03T08:09:21;101992.80;;;5.88;49.82
28701;BME280;15877;52.344;16.790;2023-04-03T08:11:53;101975.50;;;5.67;50.21
28701;BME280;15877;52.344;16.790;2023-04-03T08:14:26;102001.65;;;6.06;49.12
28701;BME280;15877;52.344;16.790;2023-04-03T08:16:59;101998.43;;;6.16;49.63
28701;BME280;15877;52.344;16.790;2023-04-03T08:19:33;101999.76;;;6.43;48.42
28701;BME280;15877;52.344;16.790;2023-04-03T08:22:06;101978.23;;;6.61;47.34
28701;BME280;15877;52.344;16.790;2023-04-03T08:24:39;102000.33;;;6.74;47.21
28701;BME280;15877;52.344;16.790;2023-04-03T08:27:29;102003.01;;;6.66;47.04
28701;BME280;15877;52.344;16.790;2023-04-03T08:30:06;102001.89;;;6.70;45.88
28701;BME280;15877;52.344;16.790;2023-04-03T08:32:40;101997.73;;;6.91;45.58
28701;BME280;15877;52.344;16.790;2023-04-03T08:35:14;101999.30;;;6.90;45.99
28701;BME280;15877;52.344;16.790;2023-04-03T08:37:47;102002.87;;;7.17;45.68
28701;BME280;15877;52.344;16.790;2023-04-03T08:40:20;101987.79;;;7.34;46.02
28701;BME280;15877;52.344;16.790;2023-04-03T08:43:01;102007.21;;;7.48;45.29
28701;BME280;15877;52.344;16.790;2023-04-03T08:45:44;102002.84;;;7.76;50.90
28701;BME280;15877;52.344;16.790;2023-04-03T08:48:21;101993.97;;;7.80;45.70
28701;BME280;15877;52.344;16.790;2023-04-03T08:50:59;101997.69;;;7.94;46.29
28701;BME280;15877;52.344;16.790;2023-04-03T08:53:36;102003.17;;;8.83;58.94
28701;BME280;15877;52.344;16.790;2023-04-03T08:56:14;102003.51;;;8.49;45.26
28701;BME280;15877;52.344;16.790;2023-04-03T08:58:52;102002.53;;;8.32;43.88
28701;BME280;15877;52.344;16.790;2023-04-03T09:01:30;101997.84;;;8.07;43.15
28701;BME280;15877;52.344;16.790;2023-04-03T09:04:11;102005.31;;;7.91;43.44
28701;BME280;15877;52.344;16.790;2023-04-03T09:06:48;102007.09;;;7.80;42.87
28701;BME280;15877;52.344;16.790;2023-04-03T09:09:33;101989.70;;;7.62;43.59
28701;BME280;15877;52.344;16.790;2023-04-03T09:12:15;102005.98;;;7.75;43.52
28701;BME280;15877;52.344;16.790;2023-04-03T09:14:57;101998.27;;;7.76;43.34
28701;BME280;15877;52.344;16.790;2023-04-03T09:17:40;101977.02;;;7.77;44.99
28701;BME280;15877;52.344;16.790;2023-04-03T09:20:21;101990.63;;;7.95;44.96
28701;BME280;15877;52.344;16.790;2023-04-03T09:22:55;101989.95;;;7.98;44.83
28701;BME280;15877;52.344;16.790;2023-04-03T09:25:29;101994.05;;;8.09;42.95
28701;BME280;15877;52.344;16.790;2023-04-03T09:28:05;101989.23;;;8.16;42.58
28701;BME280;15877;52.344;16.790;2023-04-03T09:30:41;101983.67;;;8.11;41.94
28701;BME280;15877;52.344;16.790;2023-04-03T09:33:14;101976.48;;;8.02;41.32
28701;BME280;15877;52.344;16.790;2023-04-03T09:35:49;101987.69;;;8.11;41.25
28701;BME280;15877;52.344;16.790;2023-04-03T09:38:23;101992.27;;;8.40;41.76
28701;BME280;15877;52.344;16.790;2023-04-03T09:41:07;102000.61;;;8.38;42.15
28701;BME280;15877;52.344;16.790;2023-04-03T09:43:40;101984.01;;;8.32;41.46
28701;BME280;15877;52.344;16.790;2023-04-03T09:46:31;101998.04;;;8.65;40.18
28701;BME280;15877;52.344;16.790;2023-04-03T09:49:09;101998.67;;;8.76;39.95
28701;BME280;15877;52.344;16.790;2023-04-03T09:51:43;101997.23;;;8.74;39.32
28701;BME280;15877;52.344;16.790;2023-04-03T09:54:36;102000.29;;;8.78;39.87
28701;BME280;15877;52.344;16.790;2023-04-03T09:57:13;102000.42;;;8.63;39.84
28701;BME280;15877;52.344;16.790;2023-04-03T09:59:56;102000.38;;;8.53;40.35
28701;BME280;15877;52.344;16.790;2023-04-03T10:02:40;101995.84;;;8.61;40.49
28701;BME280;15877;52.344;16.790;2023-04-03T10:05:33;101995.69;;;8.73;38.99
28701;BME280;15877;52.344;16.790;2023-04-03T10:08:21;101989.05;;;8.88;39.73
28701;BME280;15877;52.344;16.790;2023-04-03T10:11:15;101987.80;;;8.85;40.01
28701;BME280;15877;52.344;16.790;2023-04-03T10:13:54;101980.63;;;8.82;40.82
28701;BME280;15877;52.344;16.790;2023-04-03T10:16:35;101984.59;;;8.98;40.99
28701;BME280;15877;52.344;16.790;2023-04-03T10:19:34;101981.88;;;8.87;39.96
28701;BME280;15877;52.344;16.790;2023-04-03T10:22:18;101985.91;;;8.99;40.33
28701;BME280;15877;52.344;16.790;2023-04-03T10:25:03;101985.16;;;9.14;39.19
28701;BME280;15877;52.344;16.790;2023-04-03T10:27:44;101989.80;;;9.30;39.11
28701;BME280;15877;52.344;16.790;2023-04-03T10:30:34;101975.88;;;9.36;38.40
28701;BME280;15877;52.344;16.790;2023-04-03T10:33:20;101977.77;;;9.19;38.48
28701;BME280;15877;52.344;16.790;2023-04-03T10:36:05;101972.63;;;9.35;38.20
28701;BME280;15877;52.344;16.790;2023-04-03T10:38:48;101968.30;;;9.21;37.54
28701;BME280;15877;52.344;16.790;2023-04-03T10:41:31;101969.16;;;9.42;38.33
28701;BME280;15877;52.344;16.790;2023-04-03T10:44:14;101966.17;;;9.59;37.89
28701;BME280;15877;52.344;16.790;2023-04-03T10:46:51;101958.35;;;9.74;37.65
28701;BME280;15877;52.344;16.790;2023-04-03T10:49:34;101950.36;;;9.67;38.45
28701;BME280;15877;52.344;16.790;2023-04-03T10:52:16;101938.14;;;9.71;37.86
28701;BME280;15877;52.344;16.790;2023-04-03T10:54:59;101957.44;;;9.80;38.41
28701;BME280;15877;52.344;16.790;2023-04-03T10:57:33;101962.95;;;9.91;39.72
28701;BME280;15877;52.344;16.790;2023-04-03T11:00:13;101966.73;;;9.96;40.55
28701;BME280;15877;52.344;16.790;2023-04-03T11:02:53;101959.20;;;9.97;41.18
28701;BME280;15877;52.344;16.790;2023-04-03T11:05:34;101960.48;;;9.76;41.88
28701;BME280;15877;52.344;16.790;2023-04-03T11:08:16;101961.45;;;9.66;42.27
28701;BME280;15877;52.344;16.790;2023-04-03T11:10:53;101961.58;;;9.67;41.24
28701;BME280;15877;52.344;16.790;2023-04-03T11:13:34;101959.95;;;9.50;41.37
28701;BME280;15877;52.344;16.790;2023-04-03T11:16:09;101957.46;;;9.33;40.27
28701;BME280;15877;52.344;16.790;2023-04-03T11:18:52;101953.73;;;9.24;39.43
28701;BME280;15877;52.344;16.790;2023-04-03T11:21:28;101952.00;;;9.43;39.65
28701;BME280;15877;52.344;16.790;2023-04-03T11:24:05;101947.48;;;9.32;38.56
28701;BME280;15877;52.344;16.790;2023-04-03T11:26:41;101949.86;;;9.20;38.38
28701;BME280;15877;52.344;16.790;2023-04-03T11:29:18;101951.02;;;8.99;39.69
28701;BME280;15877;52.344;16.790;2023-04-03T11:32:11;101948.19;;;9.30;38.24
28701;BME280;15877;52.344;16.790;2023-04-03T11:34:50;101943.16;;;9.67;38.24
28701;BME280;15877;52.344;16.790;2023-04-03T11:37:31;101949.04;;;9.67;37.93
28701;BME280;15877;52.344;16.790;2023-04-03T11:40:13;101941.99;;;9.87;37.49
28701;BME280;15877;52.344;16.790;2023-04-03T11:42:54;101939.24;;;10.05;37.79
28701;BME280;15877;52.344;16.790;2023-04-03T11:45:45;101937.34;;;10.24;38.55
28701;BME280;15877;52.344;16.790;2023-04-03T11:48:51;101936.23;;;10.45;37.55
28701;BME280;15877;52.344;16.790;2023-04-03T11:51:42;101934.35;;;10.76;37.94
28701;BME280;15877;52.344;16.790;2023-04-03T11:54:42;101942.30;;;10.65;37.25
28701;BME280;15877;52.344;16.790;2023-04-03T12:00:52;101940.61;;;10.17;37.89
28701;BME280;15877;52.344;16.790;2023-04-03T12:04:04;101937.47;;;10.13;37.31
28701;BME280;15877;52.344;16.790;2023-04-03T12:10:17;101935.48;;;10.08;37.89
28701;BME280;15877;52.344;16.790;2023-04-03T12:13:15;101934.91;;;10.13;37.78
28701;BME280;15877;52.344;16.790;2023-04-03T12:15:53;101932.45;;;9.94;38.12
28701;BME280;15877;52.344;16.790;2023-04-03T12:18:44;101933.02;;;9.64;36.76
28701;BME280;15877;52.344;16.790;2023-04-03T12:21:18;101916.05;;;9.86;37.48
28701;BME280;15877;52.344;16.790;2023-04-03T12:24:02;101928.48;;;10.12;37.64
28701;BME280;15877;52.344;16.790;2023-04-03T12:26:40;101925.48;;;10.05;38.02
28701;BME280;15877;52.344;16.790;2023-04-03T12:29:23;101926.85;;;9.90;37.51
28701;BME280;15877;52.344;16.790;2023-04-03T12:32:08;101921.70;;;9.89;38.33
28701;BME280;15877;52.344;16.790;2023-04-03T12:34:55;101916.52;;;10.08;39.86
28701;BME280;15877;52.344;16.790;2023-04-03T12:37:43;101914.46;;;10.09;38.29
28701;BME280;15877;52.344;16.790;2023-04-03T12:40:23;101917.59;;;9.82;38.05
28701;BME280;15877;52.344;16.790;2023-04-03T12:43:36;101917.52;;;9.66;37.39
28701;BME280;15877;52.344;16.790;2023-04-03T12:46:15;101921.43;;;9.39;37.52
28701;BME280;15877;52.344;16.790;2023-04-03T12:48:52;101926.86;;;9.50;36.43
28701;BME280;15877;52.344;16.790;2023-04-03T12:51:31;101897.95;;;9.77;37.13
28701;BME280;15877;52.344;16.790;2023-04-03T12:54:16;101915.14;;;10.17;36.63
28701;BME280;15877;52.344;16.790;2023-04-03T12:56:51;101910.34;;;10.38;36.76
28701;BME280;15877;52.344;16.790;2023-04-03T12:59:25;101902.16;;;10.57;37.39
28701;BME280;15877;52.344;16.790;2023-04-03T13:02:00;101907.17;;;10.07;37.39
28701;BME280;15877;52.344;16.790;2023-04-03T13:04:33;101910.60;;;9.92;36.67
28701;BME280;15877;52.344;16.790;2023-04-03T13:07:17;101918.20;;;9.79;36.87
28701;BME280;15877;52.344;16.790;2023-04-03T13:09:59;101917.48;;;9.82;36.71
28701;BME280;15877;52.344;16.790;2023-04-03T13:12:33;101896.14;;;10.16;36.93
28701;BME280;15877;52.344;16.790;2023-04-03T13:15:16;101908.02;;;10.34;37.17
28701;BME280;15877;52.344;16.790;2023-04-03T13:17:51;101900.34;;;10.06;37.44
28701;BME280;15877;52.344;16.790;2023-04-03T13:20:27;101902.16;;;9.90;37.40
28701;BME280;15877;52.344;16.790;2023-04-03T13:23:02;101901.17;;;9.71;37.58
28701;BME280;15877;52.344;16.790;2023-04-03T13:25:40;101907.95;;;9.75;37.43
28701;BME280;15877;52.344;16.790;2023-04-03T13:28:19;101902.73;;;9.64;37.33
28701;BME280;15877;52.344;16.790;2023-04-03T13:31:04;101903.73;;;9.62;37.86
28701;BME280;15877;52.344;16.790;2023-04-03T13:33:38;101909.11;;;9.69;37.93
28701;BME280;15877;52.344;16.790;2023-04-03T13:36:18;101898.84;;;9.20;37.44
28701;BME280;15877;52.344;16.790;2023-04-03T13:39:05;101906.77;;;9.01;37.55
28701;BME280;15877;52.344;16.790;2023-04-03T13:41:40;101896.86;;;9.15;37.53
28701;BME280;15877;52.344;16.790;2023-04-03T13:44:29;101896.98;;;9.14;37.37
28701;BME280;15877;52.344;16.790;2023-04-03T13:47:17;101907.34;;;9.58;38.17
28701;BME280;15877;52.344;16.790;2023-04-03T13:50:03;101905.25;;;9.68;36.68